sensor_id;sensor_type;location;lat;lon;timestamp;P1;durP1;ratioP1;P2;durP2;ratioP2
10045;SDS011;5063;50.878;4.742;2023-04-24T00:00:10;12.23;;;8.90;;
10045;SDS011;5063;50.878;4.742;2023-04-24T00:02:40;13.47;;;8.50;;
10045;SDS011;5063;50.878;4.742;2023-04-24T00:05:06;12.23;;;8.47;;
10045;SDS011;5063;50.878;4.742;2023-04-24T00:07:33;14.13;;;9.27;;
10045;SDS011;5063;50.878;4.742;2023-04-24T00:09:59;15.10;;;9.77;;
10045;SDS011;5063;50.878;4.742;2023-04-24T00:12:25;18.37;;;9.80;;
10045;SDS011;5063;50.878;4.742;2023-04-24T00:14:52;12.17;;;9.17;;
10045;SDS011;5063;50.878;4.742;2023-04-24T00:17:18;13.30;;;10.07;;
10045;SDS011;5063;50.878;4.742;2023-04-24T00:19:46;15.30;;;9.40;;
10045;SDS011;5063;50.878;4.742;2023-04-24T00:22:12;14.23;;;9.57;;
10045;SDS011;5063;50.878;4.742;2023-04-24T00:24:39;15.00;;;9.97;;
10045;SDS011;5063;50.878;4.742;2023-04-24T00:27:05;19.27;;;10.70;;
10045;SDS011;5063;50.878;4.742;2023-04-24T00:29:31;17.23;;;11.30;;
10045;SDS011;5063;50.878;4.742;2023-04-24T00:31:57;13.77;;;9.90;;
10045;SDS011;5063;50.878;4.742;2023-04-24T00:34:23;12.60;;;9.57;;
10045;SDS011;5063;50.878;4.742;2023-04-24T00:36:48;15.77;;;9.63;;
10045;SDS011;5063;50.878;4.742;2023-04-24T00:39:20;14.97;;;9.97;;
10045;SDS011;5063;50.878;4.742;2023-04-24T00:41:46;16.67;;;10.80;;
10045;SDS011;5063;50.878;4.742;2023-04-24T00:44:13;18.93;;;10.10;;
10045;SDS011;5063;50.878;4.742;2023-04-24T00:46:40;16.67;;;10.63;;
10045;SDS011;5063;50.878;4.742;2023-04-24T00:49:06;18.10;;;10.20;;
10045;SDS011;5063;50.878;4.742;2023-04-24T00:51:32;17.67;;;10.23;;
10045;SDS011;5063;50.878;4.742;2023-04-24T00:53:58;17.33;;;10.83;;
10045;SDS011;5063;50.878;4.742;2023-04-24T00:56:25;16.83;;;10.53;;
10045;SDS011;5063;50.878;4.742;2023-04-24T00:58:50;21.50;;;10.53;;
10045;SDS011;5063;50.878;4.742;2023-04-24T01:01:17;20.73;;;11.33;;
10045;SDS011;5063;50.878;4.742;2023-04-24T01:03:46;18.33;;;10.00;;
10045;SDS011;5063;50.878;4.742;2023-04-24T01:06:13;15.17;;;10.77;;
10045;SDS011;5063;50.878;4.742;2023-04-24T01:08:40;12.83;;;11.10;;
10045;SDS011;5063;50.878;4.742;2023-04-24T01:11:07;15.90;;;9.90;;
10045;SDS011;5063;50.878;4.742;2023-04-24T01:13:33;15.77;;;10.37;;
10045;SDS011;5063;50.878;4.742;2023-04-24T01:15:59;21.40;;;11.00;;
10045;SDS011;5063;50.878;4.742;2023-04-24T01:18:26;17.13;;;10.27;;
10045;SDS011;5063;50.878;4.742;2023-04-24T01:20:53;15.00;;;10.73;;
10045;SDS011;5063;50.878;4.742;2023-04-24T01:23:22;13.87;;;10.73;;
10045;SDS011;5063;50.878;4.742;2023-04-24T01:25:48;16.87;;;10.63;;
10045;SDS011;5063;50.878;4.742;2023-04-24T01:28:15;13.53;;;9.93;;
10045;SDS011;5063;50.878;4.742;2023-04-24T01:30:41;16.33;;;10.00;;
10045;SDS011;5063;50.878;4.742;2023-04-24T01:33:07;13.07;;;9.03;;
10045;SDS011;5063;50.878;4.742;2023-04-24T01:35:33;16.93;;;10.23;;
10045;SDS011;5063;50.878;4.742;2023-04-24T01:37:59;13.07;;;8.83;;
10045;SDS011;5063;50.878;4.742;2023-04-24T01:40:25;14.30;;;9.60;;
10045;SDS011;5063;50.878;4.742;2023-04-24T01:42:51;13.70;;;8.50;;
10045;SDS011;5063;50.878;4.742;2023-04-24T01:45:17;11.83;;;8.43;;
10045;SDS011;5063;50.878;4.742;2023-04-24T01:47:43;10.93;;;8.33;;
10045;SDS011;5063;50.878;4.742;2023-04-24T01:50:10;13.10;;;8.43;;
10045;SDS011;5063;50.878;4.742;2023-04-24T01:52:36;16.87;;;9.13;;
10045;SDS011;5063;50.878;4.742;2023-04-24T01:55:03;8.97;;;7.60;;
10045;SDS011;5063;50.878;4.742;2023-04-24T01:57:29;12.60;;;8.90;;
10045;SDS011;5063;50.878;4.742;2023-04-24T01:59:56;9.97;;;7.63;;
10045;SDS011;5063;50.878;4.742;2023-04-24T02:02:22;12.03;;;7.40;;
10045;SDS011;5063;50.878;4.742;2023-04-24T02:04:55;13.57;;;8.50;;
10045;SDS011;5063;50.878;4.742;2023-04-24T02:07:21;13.23;;;8.23;;
10045;SDS011;5063;50.878;4.742;2023-04-24T02:09:47;12.70;;;8.53;;
10045;SDS011;5063;50.878;4.742;2023-04-24T02:12:13;12.83;;;8.67;;
10045;SDS011;5063;50.878;4.742;2023-04-24T02:14:42;10.10;;;7.70;;
10045;SDS011;5063;50.878;4.742;2023-04-24T02:17:09;11.87;;;8.53;;
10045;SDS011;5063;50.878;4.742;2023-04-24T02:19:37;11.50;;;8.50;;
10045;SDS011;5063;50.878;4.742;2023-04-24T02:22:03;11.20;;;8.63;;
10045;SDS011;5063;50.878;4.742;2023-04-24T02:24:28;11.60;;;7.80;;
10045;SDS011;5063;50.878;4.742;2023-04-24T02:26:54;10.13;;;8.40;;
10045;SDS011;5063;50.878;4.742;2023-04-24T02:29:20;14.60;;;9.57;;
10045;SDS011;5063;50.878;4.742;2023-04-24T02:31:46;11.33;;;8.57;;
10045;SDS011;5063;50.878;4.742;2023-04-24T02:34:12;15.13;;;10.63;;
10045;SDS011;5063;50.878;4.742;2023-04-24T02:36:38;11.60;;;8.80;;
10045;SDS011;5063;50.878;4.742;2023-04-24T02:39:03;14.50;;;10.50;;
10045;SDS011;5063;50.878;4.742;2023-04-24T02:41:29;17.13;;;9.40;;
10045;SDS011;5063;50.878;4.742;2023-04-24T02:44:00;13.07;;;9.87;;
10045;SDS011;5063;50.878;4.742;2023-04-24T02:46:26;12.93;;;10.07;;
10045;SDS011;5063;50.878;4.742;2023-04-24T02:48:51;17.33;;;9.97;;
10045;SDS011;5063;50.878;4.742;2023-04-24T02:51:17;11.27;;;9.33;;
10045;SDS011;5063;50.878;4.742;2023-04-24T02:53:43;11.57;;;10.00;;
10045;SDS011;5063;50.878;4.742;2023-04-24T02:56:09;13.73;;;9.43;;
10045;SDS011;5063;50.878;4.742;2023-04-24T02:58:37;13.40;;;9.97;;
10045;SDS011;5063;50.878;4.742;2023-04-24T03:01:03;15.57;;;9.97;;
10045;SDS011;5063;50.878;4.742;2023-04-24T03:03:29;12.07;;;10.10;;
10045;SDS011;5063;50.878;4.742;2023-04-24T03:05:55;13.97;;;10.03;;
10045;SDS011;5063;50.878;4.742;2023-04-24T03:08:22;11.03;;;9.73;;
10045;SDS011;5063;50.878;4.742;2023-04-24T03:10:48;9.97;;;8.87;;
10045;SDS011;5063;50.878;4.742;2023-04-24T03:13:15;10.63;;;9.17;;
10045;SDS011;5063;50.878;4.742;2023-04-24T03:15:41;12.43;;;9.27;;
10045;SDS011;5063;50.878;4.742;2023-04-24T03:18:07;13.67;;;9.47;;
10045;SDS011;5063;50.878;4.742;2023-04-24T03:20:33;12.70;;;8.80;;
10045;SDS011;5063;50.878;4.742;2023-04-24T03:22:58;12.77;;;9.67;;
10045;SDS011;5063;50.878;4.742;2023-04-24T03:25:24;9.70;;;8.70;;
10045;SDS011;5063;50.878;4.742;2023-04-24T03:27:50;13.87;;;8.47;;
10045;SDS011;5063;50.878;4.742;2023-04-24T03:30:16;9.90;;;8.90;;
10045;SDS011;5063;50.878;4.742;2023-04-24T03:32:42;9.73;;;7.67;;
10045;SDS011;5063;50.878;4.742;2023-04-24T03:35:08;12.90;;;8.17;;
10045;SDS011;5063;50.878;4.742;2023-04-24T03:37:34;8.30;;;7.40;;
10045;SDS011;5063;50.878;4.742;2023-04-24T03:40:00;10.17;;;7.50;;
10045;SDS011;5063;50.878;4.742;2023-04-24T03:42:26;10.00;;;7.27;;
10045;SDS011;5063;50.878;4.742;2023-04-24T03:44:52;8.00;;;7.20;;
10045;SDS011;5063;50.878;4.742;2023-04-24T03:47:18;11.00;;;7.83;;
10045;SDS011;5063;50.878;4.742;2023-04-24T03:49:43;10.73;;;7.77;;
10045;SDS011;5063;50.878;4.742;2023-04-24T03:52:09;11.00;;;7.80;;
10045;SDS011;5063;50.878;4.742;2023-04-24T03:54:35;12.33;;;7.77;;
10045;SDS011;5063;50.878;4.742;2023-04-24T03:57:01;11.97;;;7.80;;
10045;SDS011;5063;50.878;4.742;2023-04-24T03:59:26;8.93;;;7.07;;
10045;SDS011;5063;50.878;4.742;2023-04-24T04:01:52;7.93;;;6.40;;
10045;SDS011;5063;50.878;4.742;2023-04-24T04:04:19;9.33;;;7.43;;
10045;SDS011;5063;50.878;4.742;2023-04-24T04:06:44;8.40;;;6.90;;
10045;SDS011;5063;50.878;4.742;2023-04-24T04:09:11;8.40;;;7.17;;
10045;SDS011;5063;50.878;4.742;2023-04-24T04:11:37;8.07;;;6.10;;
10045;SDS011;5063;50.878;4.742;2023-04-24T04:14:03;7.70;;;6.90;;
10045;SDS011;5063;50.878;4.742;2023-04-24T04:16:29;7.27;;;5.87;;
10045;SDS011;5063;50.878;4.742;2023-04-24T04:18:55;9.37;;;6.10;;
10045;SDS011;5063;50.878;4.742;2023-04-24T04:21:20;7.43;;;5.43;;
10045;SDS011;5063;50.878;4.742;2023-04-24T04:23:46;5.57;;;5.07;;
10045;SDS011;5063;50.878;4.742;2023-04-24T04:26:13;5.37;;;4.87;;
10045;SDS011;5063;50.878;4.742;2023-04-24T04:28:39;5.67;;;4.87;;
10045;SDS011;5063;50.878;4.742;2023-04-24T04:31:05;7.80;;;5.53;;
10045;SDS011;5063;50.878;4.742;2023-04-24T04:33:32;5.83;;;4.53;;
10045;SDS011;5063;50.878;4.742;2023-04-24T04:35:58;5.73;;;4.43;;
10045;SDS011;5063;50.878;4.742;2023-04-24T04:38:25;5.37;;;4.70;;
10045;SDS011;5063;50.878;4.742;2023-04-24T04:40:55;4.80;;;3.97;;
10045;SDS011;5063;50.878;4.742;2023-04-24T04:43:24;6.93;;;4.43;;
10045;SDS011;5063;50.878;4.742;2023-04-24T04:45:50;4.90;;;4.40;;
10045;SDS011;5063;50.878;4.742;2023-04-24T04:48:17;6.77;;;4.00;;
10045;SDS011;5063;50.878;4.742;2023-04-24T04:50:43;5.00;;;3.87;;
10045;SDS011;5063;50.878;4.742;2023-04-24T04:53:10;5.13;;;4.30;;
10045;SDS011;5063;50.878;4.742;2023-04-24T04:55:36;8.40;;;4.27;;
10045;SDS011;5063;50.878;4.742;2023-04-24T04:58:02;4.03;;;3.37;;
10045;SDS011;5063;50.878;4.742;2023-04-24T05:00:28;5.93;;;4.20;;
10045;SDS011;5063;50.878;4.742;2023-04-24T05:02:58;8.27;;;4.33;;
10045;SDS011;5063;50.878;4.742;2023-04-24T05:05:25;4.30;;;3.90;;
10045;SDS011;5063;50.878;4.742;2023-04-24T05:07:51;5.40;;;4.30;;
10045;SDS011;5063;50.878;4.742;2023-04-24T05:10:16;6.67;;;4.67;;
10045;SDS011;5063;50.878;4.742;2023-04-24T05:12:42;6.80;;;5.50;;
10045;SDS011;5063;50.878;4.742;2023-04-24T05:15:08;7.83;;;5.73;;
10045;SDS011;5063;50.878;4.742;2023-04-24T05:17:34;7.30;;;6.40;;
10045;SDS011;5063;50.878;4.742;2023-04-24T05:20:00;8.03;;;6.70;;
10045;SDS011;5063;50.878;4.742;2023-04-24T05:22:26;8.43;;;6.10;;
10045;SDS011;5063;50.878;4.742;2023-04-24T05:24:52;10.40;;;7.17;;
10045;SDS011;5063;50.878;4.742;2023-04-24T05:27:18;10.97;;;7.07;;
10045;SDS011;5063;50.878;4.742;2023-04-24T05:29:44;10.07;;;6.90;;
10045;SDS011;5063;50.878;4.742;2023-04-24T05:32:10;9.13;;;7.17;;
10045;SDS011;5063;50.878;4.742;2023-04-24T05:34:36;10.10;;;7.03;;
10045;SDS011;5063;50.878;4.742;2023-04-24T05:37:02;8.30;;;6.57;;
10045;SDS011;5063;50.878;4.742;2023-04-24T05:39:28;8.73;;;6.93;;
10045;SDS011;5063;50.878;4.742;2023-04-24T05:41:54;13.93;;;7.67;;
10045;SDS011;5063;50.878;4.742;2023-04-24T05:44:23;8.67;;;7.20;;
10045;SDS011;5063;50.878;4.742;2023-04-24T05:46:48;10.53;;;7.37;;
10045;SDS011;5063;50.878;4.742;2023-04-24T05:49:14;8.60;;;7.33;;
10045;SDS011;5063;50.878;4.742;2023-04-24T05:51:40;10.27;;;7.67;;
10045;SDS011;5063;50.878;4.742;2023-04-24T05:54:06;10.20;;;7.27;;
10045;SDS011;5063;50.878;4.742;2023-04-24T05:56:32;14.60;;;7.30;;
10045;SDS011;5063;50.878;4.742;2023-04-24T05:58:57;10.77;;;7.30;;
10045;SDS011;5063;50.878;4.742;2023-04-24T06:01:23;11.97;;;7.73;;
10045;SDS011;5063;50.878;4.742;2023-04-24T06:03:50;10.17;;;7.60;;
10045;SDS011;5063;50.878;4.742;2023-04-24T06:06:16;8.97;;;7.27;;
10045;SDS011;5063;50.878;4.742;2023-04-24T06:08:41;11.10;;;7.77;;
10045;SDS011;5063;50.878;4.742;2023-04-24T06:11:09;9.60;;;7.80;;
10045;SDS011;5063;50.878;4.742;2023-04-24T06:13:35;12.43;;;8.47;;
10045;SDS011;5063;50.878;4.742;2023-04-24T06:16:00;14.93;;;8.77;;
10045;SDS011;5063;50.878;4.742;2023-04-24T06:18:26;12.97;;;8.23;;
10045;SDS011;5063;50.878;4.742;2023-04-24T06:20:52;9.57;;;8.30;;
10045;SDS011;5063;50.878;4.742;2023-04-24T06:23:18;13.60;;;9.03;;
10045;SDS011;5063;50.878;4.742;2023-04-24T06:25:44;15.13;;;8.90;;
10045;SDS011;5063;50.878;4.742;2023-04-24T06:28:09;14.07;;;8.93;;
10045;SDS011;5063;50.878;4.742;2023-04-24T06:30:35;13.27;;;9.03;;
10045;SDS011;5063;50.878;4.742;2023-04-24T06:33:01;11.73;;;8.77;;
10045;SDS011;5063;50.878;4.742;2023-04-24T06:35:27;10.87;;;8.83;;
10045;SDS011;5063;50.878;4.742;2023-04-24T06:37:52;11.53;;;9.40;;
10045;SDS011;5063;50.878;4.742;2023-04-24T06:40:18;13.63;;;10.13;;
10045;SDS011;5063;50.878;4.742;2023-04-24T06:42:44;19.13;;;10.80;;
10045;SDS011;5063;50.878;4.742;2023-04-24T06:45:10;17.47;;;9.93;;
10045;SDS011;5063;50.878;4.742;2023-04-24T06:47:36;17.43;;;9.73;;
10045;SDS011;5063;50.878;4.742;2023-04-24T06:50:03;15.13;;;10.20;;
10045;SDS011;5063;50.878;4.742;2023-04-24T06:52:29;16.37;;;9.83;;
10045;SDS011;5063;50.878;4.742;2023-04-24T06:55:01;14.23;;;10.77;;
10045;SDS011;5063;50.878;4.742;2023-04-24T06:57:27;15.60;;;10.50;;
10045;SDS011;5063;50.878;4.742;2023-04-24T06:59:54;14.83;;;10.50;;
10045;SDS011;5063;50.878;4.742;2023-04-24T07:02:19;11.83;;;9.30;;
10045;SDS011;5063;50.878;4.742;2023-04-24T07:04:45;19.90;;;10.80;;
10045;SDS011;5063;50.878;4.742;2023-04-24T07:07:12;17.03;;;10.70;;
10045;SDS011;5063;50.878;4.742;2023-04-24T07:09:39;15.37;;;11.13;;
10045;SDS011;5063;50.878;4.742;2023-04-24T07:12:10;18.80;;;11.37;;
10045;SDS011;5063;50.878;4.742;2023-04-24T07:14:37;16.03;;;11.73;;
10045;SDS011;5063;50.878;4.742;2023-04-24T07:17:04;18.33;;;12.17;;
10045;SDS011;5063;50.878;4.742;2023-04-24T07:19:30;17.80;;;11.63;;
10045;SDS011;5063;50.878;4.742;2023-04-24T07:21:56;21.20;;;11.77;;
10045;SDS011;5063;50.878;4.742;2023-04-24T07:24:23;16.60;;;12.37;;
10045;SDS011;5063;50.878;4.742;2023-04-24T07:26:50;16.50;;;11.53;;
10045;SDS011;5063;50.878;4.742;2023-04-24T07:29:17;18.17;;;11.27;;
10045;SDS011;5063;50.878;4.742;2023-04-24T07:31:43;17.47;;;11.00;;
10045;SDS011;5063;50.878;4.742;2023-04-24T07:34:08;21.50;;;12.30;;
10045;SDS011;5063;50.878;4.742;2023-04-24T07:36:34;14.90;;;11.33;;
10045;SDS011;5063;50.878;4.742;2023-04-24T07:39:00;16.20;;;10.73;;
10045;SDS011;5063;50.878;4.742;2023-04-24T07:41:26;16.37;;;10.50;;
10045;SDS011;5063;50.878;4.742;2023-04-24T07:43:53;14.50;;;10.00;;
10045;SDS011;5063;50.878;4.742;2023-04-24T07:46:19;18.37;;;11.63;;
10045;SDS011;5063;50.878;4.742;2023-04-24T07:48:45;20.47;;;11.30;;
10045;SDS011;5063;50.878;4.742;2023-04-24T07:51:13;16.47;;;10.27;;
10045;SDS011;5063;50.878;4.742;2023-04-24T07:53:39;17.73;;;11.23;;
10045;SDS011;5063;50.878;4.742;2023-04-24T07:56:05;21.13;;;11.57;;
10045;SDS011;5063;50.878;4.742;2023-04-24T07:58:31;15.87;;;11.53;;
10045;SDS011;5063;50.878;4.742;2023-04-24T08:00:57;22.57;;;11.20;;
10045;SDS011;5063;50.878;4.742;2023-04-24T08:03:23;19.03;;;10.80;;
10045;SDS011;5063;50.878;4.742;2023-04-24T08:05:49;19.53;;;10.83;;
10045;SDS011;5063;50.878;4.742;2023-04-24T08:08:16;17.73;;;9.97;;
10045;SDS011;5063;50.878;4.742;2023-04-24T08:10:42;14.90;;;10.37;;
10045;SDS011;5063;50.878;4.742;2023-04-24T08:13:08;21.27;;;10.43;;
10045;SDS011;5063;50.878;4.742;2023-04-24T08:15:33;17.57;;;10.10;;
10045;SDS011;5063;50.878;4.742;2023-04-24T08:17:59;14.83;;;8.77;;
10045;SDS011;5063;50.878;4.742;2023-04-24T08:20:25;11.10;;;8.97;;
10045;SDS011;5063;50.878;4.742;2023-04-24T08:22:51;14.87;;;9.23;;
10045;SDS011;5063;50.878;4.742;2023-04-24T08:25:17;10.50;;;7.93;;
10045;SDS011;5063;50.878;4.742;2023-04-24T08:27:44;10.97;;;6.90;;
10045;SDS011;5063;50.878;4.742;2023-04-24T08:30:10;8.03;;;6.33;;
10045;SDS011;5063;50.878;4.742;2023-04-24T08:32:36;12.97;;;7.17;;
10045;SDS011;5063;50.878;4.742;2023-04-24T08:35:02;12.60;;;6.53;;
10045;SDS011;5063;50.878;4.742;2023-04-24T08:37:28;14.37;;;6.73;;
10045;SDS011;5063;50.878;4.742;2023-04-24T08:39:54;9.70;;;6.17;;
10045;SDS011;5063;50.878;4.742;2023-04-24T08:42:20;10.03;;;6.67;;
10045;SDS011;5063;50.878;4.742;2023-04-24T08:44:48;13.13;;;6.70;;
10045;SDS011;5063;50.878;4.742;2023-04-24T08:47:14;10.80;;;6.67;;
10045;SDS011;5063;50.878;4.742;2023-04-24T08:49:41;12.63;;;8.13;;
10045;SDS011;5063;50.878;4.742;2023-04-24T08:52:07;15.90;;;7.90;;
10045;SDS011;5063;50.878;4.742;2023-04-24T08:54:34;12.33;;;7.57;;
10045;SDS011;5063;50.878;4.742;2023-04-24T08:57:01;14.13;;;8.87;;
10045;SDS011;5063;50.878;4.742;2023-04-24T08:59:28;16.20;;;8.10;;
10045;SDS011;5063;50.878;4.742;2023-04-24T09:01:58;14.50;;;7.77;;
10045;SDS011;5063;50.878;4.742;2023-04-24T09:04:25;13.57;;;7.53;;
10045;SDS011;5063;50.878;4.742;2023-04-24T09:06:53;12.70;;;7.07;;
10045;SDS011;5063;50.878;4.742;2023-04-24T09:09:21;12.50;;;5.70;;
10045;SDS011;5063;50.878;4.742;2023-04-24T09:11:51;9.37;;;5.47;;
10045;SDS011;5063;50.878;4.742;2023-04-24T09:14:20;13.07;;;5.60;;
10045;SDS011;5063;50.878;4.742;2023-04-24T09:16:46;13.07;;;5.37;;
10045;SDS011;5063;50.878;4.742;2023-04-24T09:19:13;15.00;;;5.43;;
10045;SDS011;5063;50.878;4.742;2023-04-24T09:21:38;12.83;;;5.73;;
10045;SDS011;5063;50.878;4.742;2023-04-24T09:24:07;8.00;;;5.27;;
10045;SDS011;5063;50.878;4.742;2023-04-24T09:26:42;12.10;;;5.40;;
10045;SDS011;5063;50.878;4.742;2023-04-24T09:29:13;8.60;;;5.60;;
10045;SDS011;5063;50.878;4.742;2023-04-24T09:31:43;11.50;;;5.90;;
10045;SDS011;5063;50.878;4.742;2023-04-24T09:34:10;13.27;;;5.07;;
10045;SDS011;5063;50.878;4.742;2023-04-24T09:36:38;9.03;;;4.80;;
10045;SDS011;5063;50.878;4.742;2023-04-24T09:39:07;7.50;;;5.03;;
10045;SDS011;5063;50.878;4.742;2023-04-24T09:44:17;11.27;;;5.27;;
10045;SDS011;5063;50.878;4.742;2023-04-24T09:46:49;10.37;;;5.03;;
10045;SDS011;5063;50.878;4.742;2023-04-24T09:49:23;10.43;;;6.07;;
10045;SDS011;5063;50.878;4.742;2023-04-24T09:51:51;10.20;;;4.87;;
10045;SDS011;5063;50.878;4.742;2023-04-24T09:54:18;10.30;;;4.90;;
10045;SDS011;5063;50.878;4.742;2023-04-24T09:56:48;11.37;;;5.43;;
10045;SDS011;5063;50.878;4.742;2023-04-24T09:59:16;7.90;;;5.17;;
10045;SDS011;5063;50.878;4.742;2023-04-24T10:01:43;8.37;;;4.60;;
10045;SDS011;5063;50.878;4.742;2023-04-24T10:04:19;10.07;;;4.33;;
10045;SDS011;5063;50.878;4.742;2023-04-24T10:06:50;7.70;;;4.37;;
10045;SDS011;5063;50.878;4.742;2023-04-24T10:09:21;6.47;;;3.73;;
10045;SDS011;5063;50.878;4.742;2023-04-24T10:11:51;7.27;;;3.93;;
10045;SDS011;5063;50.878;4.742;2023-04-24T10:14:19;7.33;;;3.50;;
10045;SDS011;5063;50.878;4.742;2023-04-24T10:16:47;7.47;;;3.40;;
10045;SDS011;5063;50.878;4.742;2023-04-24T10:19:13;6.47;;;3.60;;
10045;SDS011;5063;50.878;4.742;2023-04-24T10:21:41;5.73;;;3.70;;
10045;SDS011;5063;50.878;4.742;2023-04-24T10:24:12;7.83;;;3.77;;
10045;SDS011;5063;50.878;4.742;2023-04-24T10:26:41;4.20;;;3.20;;
10045;SDS011;5063;50.878;4.742;2023-04-24T10:29:08;7.47;;;3.67;;
10045;SDS011;5063;50.878;4.742;2023-04-24T10:31:36;7.67;;;4.13;;
10045;SDS011;5063;50.878;4.742;2023-04-24T10:34:03;9.83;;;4.10;;
10045;SDS011;5063;50.878;4.742;2023-04-24T10:36:30;10.30;;;4.10;;
10045;SDS011;5063;50.878;4.742;2023-04-24T10:38:59;5.73;;;3.50;;
10045;SDS011;5063;50.878;4.742;2023-04-24T10:41:27;9.90;;;3.73;;
10045;SDS011;5063;50.878;4.742;2023-04-24T10:44:05;5.03;;;3.67;;
10045;SDS011;5063;50.878;4.742;2023-04-24T10:46:35;8.47;;;3.80;;
10045;SDS011;5063;50.878;4.742;2023-04-24T10:49:07;5.27;;;3.70;;
10045;SDS011;5063;50.878;4.742;2023-04-24T10:51:44;6.90;;;3.67;;
10045;SDS011;5063;50.878;4.742;2023-04-24T10:54:24;6.23;;;3.27;;
10045;SDS011;5063;50.878;4.742;2023-04-24T10:59:47;6.07;;;3.17;;
10045;SDS011;5063;50.878;4.742;2023-04-24T11:02:15;6.93;;;3.93;;
10045;SDS011;5063;50.878;4.742;2023-04-24T11:04:42;8.17;;;3.40;;
10045;SDS011;5063;50.878;4.742;2023-04-24T11:07:10;5.80;;;3.67;;
10045;SDS011;5063;50.878;4.742;2023-04-24T11:09:36;9.30;;;3.77;;
10045;SDS011;5063;50.878;4.742;2023-04-24T11:12:06;8.27;;;3.70;;
10045;SDS011;5063;50.878;4.742;2023-04-24T11:20:02;9.93;;;3.43;;
10045;SDS011;5063;50.878;4.742;2023-04-24T11:22:36;8.60;;;4.03;;
10045;SDS011;5063;50.878;4.742;2023-04-24T11:25:04;5.70;;;3.47;;
10045;SDS011;5063;50.878;4.742;2023-04-24T11:27:31;6.37;;;3.73;;
10045;SDS011;5063;50.878;4.742;2023-04-24T11:29:59;4.27;;;3.57;;
10045;SDS011;5063;50.878;4.742;2023-04-24T11:35:08;8.70;;;4.13;;
10045;SDS011;5063;50.878;4.742;2023-04-24T11:37:39;9.83;;;3.80;;
10045;SDS011;5063;50.878;4.742;2023-04-24T11:40:07;7.20;;;4.03;;
10045;SDS011;5063;50.878;4.742;2023-04-24T11:42:37;7.93;;;4.13;;
10045;SDS011;5063;50.878;4.742;2023-04-24T11:45:08;6.63;;;3.53;;
10045;SDS011;5063;50.878;4.742;2023-04-24T11:47:35;7.00;;;3.40;;
10045;SDS011;5063;50.878;4.742;2023-04-24T11:50:01;8.30;;;4.27;;
10045;SDS011;5063;50.878;4.742;2023-04-24T11:52:29;5.23;;;3.33;;
10045;SDS011;5063;50.878;4.742;2023-04-24T11:54:55;3.60;;;3.13;;
10045;SDS011;5063;50.878;4.742;2023-04-24T11:57:22;6.57;;;3.70;;
10045;SDS011;5063;50.878;4.742;2023-04-24T11:59:52;5.47;;;3.37;;
10045;SDS011;5063;50.878;4.742;2023-04-24T12:02:25;6.40;;;3.93;;
10045;SDS011;5063;50.878;4.742;2023-04-24T12:04:52;9.23;;;4.03;;
10045;SDS011;5063;50.878;4.742;2023-04-24T12:07:18;5.17;;;3.87;;
10045;SDS011;5063;50.878;4.742;2023-04-24T12:09:45;6.10;;;3.93;;
10045;SDS011;5063;50.878;4.742;2023-04-24T12:12:12;4.53;;;3.10;;
10045;SDS011;5063;50.878;4.742;2023-04-24T12:14:49;7.03;;;3.90;;
10045;SDS011;5063;50.878;4.742;2023-04-24T12:17:23;7.87;;;3.63;;
10045;SDS011;5063;50.878;4.742;2023-04-24T12:19:56;7.43;;;3.70;;
10045;SDS011;5063;50.878;4.742;2023-04-24T12:22:23;4.93;;;3.90;;
10045;SDS011;5063;50.878;4.742;2023-04-24T12:25:23;4.40;;;3.50;;
10045;SDS011;5063;50.878;4.742;2023-04-24T12:27:46;5.47;;;3.70;;
10045;SDS011;5063;50.878;4.742;2023-04-24T12:30:18;3.73;;;3.17;;
10045;SDS011;5063;50.878;4.742;2023-04-24T12:32:48;4.30;;;3.77;;
10045;SDS011;5063;50.878;4.742;2023-04-24T12:35:21;4.50;;;3.43;;
10045;SDS011;5063;50.878;4.742;2023-04-24T12:37:48;7.17;;;3.77;;
10045;SDS011;5063;50.878;4.742;2023-04-24T12:40:14;5.33;;;4.03;;
10045;SDS011;5063;50.878;4.742;2023-04-24T12:42:47;6.40;;;3.93;;
10045;SDS011;5063;50.878;4.742;2023-04-24T12:45:15;5.63;;;4.67;;
10045;SDS011;5063;50.878;4.742;2023-04-24T12:47:42;7.83;;;3.33;;
10045;SDS011;5063;50.878;4.742;2023-04-24T12:50:10;5.03;;;3.23;;
10045;SDS011;5063;50.878;4.742;2023-04-24T12:52:37;3.93;;;3.53;;
10045;SDS011;5063;50.878;4.742;2023-04-24T12:55:04;3.17;;;2.87;;
10045;SDS011;5063;50.878;4.742;2023-04-24T12:57:33;4.10;;;3.13;;
10045;SDS011;5063;50.878;4.742;2023-04-24T13:00:00;4.83;;;3.73;;
10045;SDS011;5063;50.878;4.742;2023-04-24T13:02:29;7.20;;;3.37;;
10045;SDS011;5063;50.878;4.742;2023-04-24T13:04:56;6.53;;;3.20;;
10045;SDS011;5063;50.878;4.742;2023-04-24T13:07:23;3.53;;;3.17;;
10045;SDS011;5063;50.878;4.742;2023-04-24T13:09:50;5.27;;;3.40;;
10045;SDS011;5063;50.878;4.742;2023-04-24T13:12:16;6.80;;;3.53;;
10045;SDS011;5063;50.878;4.742;2023-04-24T13:14:43;5.00;;;4.03;;
10045;SDS011;5063;50.878;4.742;2023-04-24T13:17:09;6.83;;;3.77;;
10045;SDS011;5063;50.878;4.742;2023-04-24T13:19:37;5.47;;;3.37;;
10045;SDS011;5063;50.878;4.742;2023-04-24T13:22:08;5.73;;;3.87;;
10045;SDS011;5063;50.878;4.742;2023-04-24T13:24:35;6.47;;;3.50;;
10045;SDS011;5063;50.878;4.742;2023-04-24T13:27:01;7.97;;;3.67;;
10045;SDS011;5063;50.878;4.742;2023-04-24T13:29:27;6.33;;;3.60;;
10045;SDS011;5063;50.878;4.742;2023-04-24T13:31:53;8.50;;;3.60;;
10045;SDS011;5063;50.878;4.742;2023-04-24T13:34:20;6.97;;;3.30;;
10045;SDS011;5063;50.878;4.742;2023-04-24T13:36:47;4.67;;;2.60;;
10045;SDS011;5063;50.878;4.742;2023-04-24T13:39:12;4.13;;;2.90;;
10045;SDS011;5063;50.878;4.742;2023-04-24T13:41:38;4.27;;;3.33;;
10045;SDS011;5063;50.878;4.742;2023-04-24T13:44:05;4.23;;;2.83;;
10045;SDS011;5063;50.878;4.742;2023-04-24T13:46:31;6.57;;;3.07;;
10045;SDS011;5063;50.878;4.742;2023-04-24T13:48:57;7.00;;;2.97;;
10045;SDS011;5063;50.878;4.742;2023-04-24T13:51:23;5.27;;;2.50;;
10045;SDS011;5063;50.878;4.742;2023-04-24T13:53:53;4.77;;;2.53;;
10045;SDS011;5063;50.878;4.742;2023-04-24T13:56:19;3.40;;;2.97;;
10045;SDS011;5063;50.878;4.742;2023-04-24T13:58:45;3.83;;;2.60;;
10045;SDS011;5063;50.878;4.742;2023-04-24T14:01:11;7.10;;;2.87;;
10045;SDS011;5063;50.878;4.742;2023-04-24T14:03:37;6.80;;;3.10;;
10045;SDS011;5063;50.878;4.742;2023-04-24T14:06:03;6.30;;;3.13;;
10045;SDS011;5063;50.878;4.742;2023-04-24T14:08:29;5.07;;;3.20;;
10045;SDS011;5063;50.878;4.742;2023-04-24T14:10:55;6.90;;;3.57;;
10045;SDS011;5063;50.878;4.742;2023-04-24T14:13:21;5.17;;;2.90;;
10045;SDS011;5063;50.878;4.742;2023-04-24T14:15:47;6.67;;;2.67;;
10045;SDS011;5063;50.878;4.742;2023-04-24T14:18:12;3.60;;;2.70;;
10045;SDS011;5063;50.878;4.742;2023-04-24T14:20:38;2.63;;;2.43;;
10045;SDS011;5063;50.878;4.742;2023-04-24T14:23:04;6.57;;;3.47;;
10045;SDS011;5063;50.878;4.742;2023-04-24T14:25:30;9.27;;;3.03;;
10045;SDS011;5063;50.878;4.742;2023-04-24T14:27:55;3.63;;;2.57;;
10045;SDS011;5063;50.878;4.742;2023-04-24T14:30:21;3.40;;;2.47;;
10045;SDS011;5063;50.878;4.742;2023-04-24T14:32:47;5.80;;;2.67;;
10045;SDS011;5063;50.878;4.742;2023-04-24T14:35:13;2.77;;;2.47;;
10045;SDS011;5063;50.878;4.742;2023-04-24T14:37:39;4.97;;;2.40;;
10045;SDS011;5063;50.878;4.742;2023-04-24T14:40:06;5.93;;;2.80;;
10045;SDS011;5063;50.878;4.742;2023-04-24T14:42:33;4.07;;;2.10;;
10045;SDS011;5063;50.878;4.742;2023-04-24T14:44:59;5.03;;;2.20;;
10045;SDS011;5063;50.878;4.742;2023-04-24T14:47:25;3.20;;;2.30;;
10045;SDS011;5063;50.878;4.742;2023-04-24T14:49:51;4.27;;;2.20;;
10045;SDS011;5063;50.878;4.742;2023-04-24T14:52:17;5.23;;;1.90;;
10045;SDS011;5063;50.878;4.742;2023-04-24T14:54:42;3.83;;;2.33;;
10045;SDS011;5063;50.878;4.742;2023-04-24T14:57:08;3.63;;;2.23;;
10045;SDS011;5063;50.878;4.742;2023-04-24T14:59:34;3.67;;;2.40;;
10045;SDS011;5063;50.878;4.742;2023-04-24T15:02:00;6.17;;;2.20;;
10045;SDS011;5063;50.878;4.742;2023-04-24T15:04:27;4.50;;;1.93;;